Time;durP1;ratioP1;P1;durP2;ratioP2;P2;SDS_P1;SDS_P2;PMS_P1;PMS_P2;Temp;Humidity;BMP_temperature;BMP_pressure;BME280_temperature;BME280_humidity;BME280_pressure;Samples;Min_cycle;Max_cycle;Signal;HPM_P1;HPM_P2
2021/07/20 00:00:20;;;;;;;19.13;11.97;;;17.30;99.90;;;;;;5007950;28;20451;-60
2021/07/20 00:02:48;;;;;;;24.47;13.17;;;17.30;99.90;;;;;;5004789;28;20448;-59
2021/07/20 00:05:20;;;;;;;28.27;13.90;;;17.30;99.90;;;;;;5009278;28;20471;-59
2021/07/20 00:07:50;;;;;;;23.37;12.53;;;17.30;99.90;;;;;;5008667;28;20423;-59
2021/07/20 00:10:25;;;;;;;24.17;12.93;;;17.20;99.90;;;;;;5028877;23;21021;-53
2021/07/20 00:12:52;;;;;;;22.30;12.90;;;17.20;99.90;;;;;;5025913;28;20509;-53
2021/07/20 00:15:18;;;;;;;20.40;11.30;;;17.10;99.90;;;;;;5011025;28;20469;-52
2021/07/20 00:17:45;;;;;;;22.30;13.07;;;17.10;99.90;;;;;;5008148;28;20941;-52
2021/07/20 00:20:13;;;;;;;21.87;13.30;;;17.10;99.90;;;;;;5005235;28;20452;-54
2021/07/20 00:22:39;;;;;;;25.53;11.70;;;17.00;99.90;;;;;;5002918;28;20438;-53
2021/07/20 00:25:07;;;;;;;20.97;12.50;;;17.00;99.90;;;;;;5006532;28;20814;-52
2021/07/20 00:27:33;;;;;;;19.53;12.60;;;17.00;99.90;;;;;;5005735;28;20644;-54
2021/07/20 00:29:58;;;;;;;25.50;13.80;;;17.00;99.90;;;;;;5005069;28;20530;-53
2021/07/20 00:32:24;;;;;;;20.80;12.90;;;17.00;99.90;;;;;;5006261;28;20439;-52
2021/07/20 00:34:50;;;;;;;21.10;12.83;;;16.90;99.90;;;;;;5006682;28;20500;-53
2021/07/20 00:37:15;;;;;;;21.93;12.83;;;17.00;99.90;;;;;;5001050;28;20554;-54
2021/07/20 00:39:41;;;;;;;22.50;12.87;;;17.00;99.90;;;;;;5004942;28;20303;-53
2021/07/20 00:42:07;;;;;;;19.33;12.60;;;16.90;99.90;;;;;;5023686;28;20200;-54
2021/07/20 00:44:33;;;;;;;25.63;13.60;;;16.90;99.90;;;;;;5005309;28;20185;-53
2021/07/20 00:46:59;;;;;;;19.60;12.73;;;16.90;99.90;;;;;;5007335;28;20173;-53
2021/07/20 00:49:25;;;;;;;22.97;12.77;;;16.80;99.90;;;;;;5005203;28;20844;-53
2021/07/20 00:51:51;;;;;;;20.90;13.33;;;16.80;99.90;;;;;;5000879;28;20183;-54
2021/07/20 00:54:17;;;;;;;24.23;12.77;;;16.70;99.90;;;;;;5005808;28;20475;-54
2021/07/20 00:56:43;;;;;;;22.87;13.27;;;16.60;99.90;;;;;;5007896;28;20455;-54
2021/07/20 00:59:11;;;;;;;23.33;12.90;;;16.60;99.90;;;;;;5005885;28;20196;-53
2021/07/20 01:01:37;;;;;;;22.87;12.17;;;16.50;99.90;;;;;;5001247;28;20424;-52
2021/07/20 01:04:02;;;;;;;23.20;13.73;;;16.50;99.90;;;;;;5002358;28;20423;-54
2021/07/20 01:06:29;;;;;;;19.13;12.37;;;16.40;99.90;;;;;;5008209;28;20255;-53
2021/07/20 01:08:56;;;;;;;21.67;12.67;;;16.40;99.90;;;;;;5003290;28;20204;-53
2021/07/20 01:11:25;;;;;;;21.30;13.20;;;16.40;99.90;;;;;;5008616;28;20434;-53
2021/07/20 01:13:51;;;;;;;26.90;12.83;;;16.30;99.90;;;;;;5007254;28;20441;-52
2021/07/20 01:16:16;;;;;;;24.30;13.30;;;16.30;99.90;;;;;;5004410;28;20888;-53
2021/07/20 01:18:43;;;;;;;24.10;12.70;;;16.30;99.90;;;;;;5002306;28;20665;-52
2021/07/20 01:21:09;;;;;;;22.27;12.77;;;16.20;99.90;;;;;;5001533;28;20256;-53
2021/07/20 01:23:43;;;;;;;20.80;12.57;;;16.20;99.90;;;;;;5004332;28;20434;-53
2021/07/20 01:26:09;;;;;;;23.30;13.50;;;16.10;99.90;;;;;;5007217;28;20509;-53
2021/07/20 01:28:36;;;;;;;24.53;13.23;;;16.10;99.90;;;;;;5005693;28;20952;-53
2021/07/20 01:31:09;;;;;;;21.83;12.40;;;16.10;99.90;;;;;;5004612;28;20186;-53
2021/07/20 01:33:38;;;;;;;22.03;13.17;;;16.00;99.90;;;;;;5001259;28;20940;-53
2021/07/20 01:36:06;;;;;;;25.03;13.50;;;16.00;99.90;;;;;;5007284;28;20463;-53
2021/07/20 01:38:33;;;;;;;21.43;13.27;;;15.90;99.90;;;;;;5007496;28;20832;-53
2021/07/20 01:41:05;;;;;;;25.40;13.93;;;15.90;99.90;;;;;;5008550;28;20399;-53
2021/07/20 01:43:32;;;;;;;18.50;13.33;;;15.80;99.90;;;;;;5003383;28;20425;-53
2021/07/20 01:45:59;;;;;;;24.97;13.27;;;15.80;99.90;;;;;;4991482;28;20950;-53
2021/07/20 01:48:28;;;;;;;24.13;13.40;;;15.80;99.90;;;;;;5006114;28;20474;-51
2021/07/20 01:50:56;;;;;;;24.53;14.30;;;15.70;99.90;;;;;;5003782;28;20443;-53
2021/07/20 01:53:22;;;;;;;30.03;12.90;;;15.70;99.90;;;;;;5006688;28;20434;-53
2021/07/20 01:55:48;;;;;;;25.10;14.60;;;15.70;99.90;;;;;;5007201;28;20481;-53
2021/07/20 01:58:13;;;;;;;21.90;13.10;;;15.60;99.90;;;;;;5002798;28;20394;-53
2021/07/20 02:00:40;;;;;;;23.07;13.63;;;15.60;99.90;;;;;;4997727;28;20196;-54
2021/07/20 02:08:48;;;;;;;24.40;12.80;;;15.50;99.90;;;;;;5004405;28;20470;-53
2021/07/20 02:11:22;;;;;;;21.20;12.60;;;15.50;99.90;;;;;;5005758;28;20558;-54
2021/07/20 02:13:52;;;;;;;22.93;13.10;;;15.50;99.90;;;;;;5006180;28;20428;-54
2021/07/20 02:16:22;;;;;;;30.33;13.97;;;15.40;99.90;;;;;;5006224;28;20530;-53
2021/07/20 02:18:53;;;;;;;19.67;12.90;;;15.40;99.90;;;;;;5005920;28;20501;-54
2021/07/20 02:21:21;;;;;;;26.53;13.33;;;15.40;99.90;;;;;;5005510;28;20427;-53
2021/07/20 02:23:51;;;;;;;25.87;14.70;;;15.40;99.90;;;;;;5006964;28;20515;-54
2021/07/20 02:26:18;;;;;;;22.03;13.73;;;15.30;99.90;;;;;;5005253;28;20454;-55
2021/07/20 02:28:44;;;;;;;22.43;13.17;;;15.30;99.90;;;;;;5005687;28;20432;-54
2021/07/20 02:31:12;;;;;;;26.53;14.20;;;15.20;99.90;;;;;;5007475;28;20998;-55
2021/07/20 02:33:40;;;;;;;22.83;14.30;;;15.20;99.90;;;;;;5006275;28;20975;-55
2021/07/20 02:36:07;;;;;;;27.83;14.40;;;15.20;99.90;;;;;;5003678;28;20450;-55
2021/07/20 02:38:36;;;;;;;22.40;13.40;;;15.20;99.90;;;;;;5003301;28;20508;-55
2021/07/20 02:41:02;;;;;;;27.50;15.03;;;15.10;99.90;;;;;;5007191;28;20427;-55
2021/07/20 02:43:30;;;;;;;27.40;14.87;;;15.10;99.90;;;;;;5006698;28;20523;-56
2021/07/20 02:45:56;;;;;;;27.77;14.20;;;15.10;99.90;;;;;;5005186;28;20443;-54
2021/07/20 02:48:23;;;;;;;23.73;14.63;;;15.10;99.90;;;;;;5006524;28;20479;-54
2021/07/20 02:50:51;;;;;;;38.33;13.47;;;15.10;99.90;;;;;;5004280;28;20539;-54
2021/07/20 02:53:17;;;;;;;24.30;13.10;;;15.00;99.90;;;;;;5002635;28;20432;-54
2021/07/20 02:55:44;;;;;;;24.40;14.87;;;15.00;99.90;;;;;;5004648;28;20462;-54
2021/07/20 02:58:11;;;;;;;27.50;14.70;;;15.00;99.90;;;;;;5003792;28;20497;-55
2021/07/20 03:00:38;;;;;;;23.50;13.67;;;14.90;99.90;;;;;;5006466;28;20823;-55
2021/07/20 03:03:04;;;;;;;27.60;14.77;;;14.90;99.90;;;;;;5003463;28;20450;-55
2021/07/20 03:05:30;;;;;;;24.03;14.13;;;14.90;99.90;;;;;;5005285;28;20434;-54
2021/07/20 03:07:59;;;;;;;31.07;13.90;;;14.90;99.90;;;;;;5004960;28;20650;-54
2021/07/20 03:10:31;;;;;;;26.13;14.53;;;14.80;99.90;;;;;;5004291;28;20261;-53
2021/07/20 03:13:05;;;;;;;24.93;14.57;;;14.80;99.90;;;;;;4999300;28;20434;-54
2021/07/20 03:15:31;;;;;;;23.60;13.73;;;14.80;99.90;;;;;;5004962;28;20460;-55
2021/07/20 03:17:59;;;;;;;25.57;14.83;;;14.80;99.90;;;;;;4999181;28;20735;-55
2021/07/20 03:20:28;;;;;;;24.87;14.53;;;14.80;99.90;;;;;;5005903;28;20442;-54
2021/07/20 03:22:55;;;;;;;24.57;14.23;;;14.70;99.90;;;;;;5004354;28;20661;-54
2021/07/20 03:25:25;;;;;;;26.93;15.27;;;14.70;99.90;;;;;;5004988;28;20743;-54
2021/07/20 03:27:52;;;;;;;24.90;14.00;;;14.70;99.90;;;;;;5001228;28;20893;-54
2021/07/20 03:30:18;;;;;;;29.00;14.03;;;14.60;99.90;;;;;;5004567;28;21035;-54
2021/07/20 03:32:47;;;;;;;22.03;14.33;;;14.60;99.90;;;;;;5009283;28;20431;-54
2021/07/20 03:35:15;;;;;;;26.27;14.13;;;14.50;99.90;;;;;;5002660;28;20616;-55
2021/07/20 03:37:42;;;;;;;26.80;15.13;;;14.50;99.90;;;;;;5006628;28;20438;-53
2021/07/20 03:40:09;;;;;;;28.83;14.80;;;14.50;99.90;;;;;;5007561;28;20443;-53
2021/07/20 03:42:37;;;;;;;29.43;15.23;;;14.40;99.90;;;;;;5005079;28;20573;-54
2021/07/20 03:45:03;;;;;;;24.67;14.17;;;14.40;99.90;;;;;;5003912;28;20439;-55
2021/07/20 03:47:30;;;;;;;27.37;16.30;;;14.40;99.90;;;;;;4999529;28;20478;-53
2021/07/20 03:49:56;;;;;;;28.87;15.57;;;14.40;99.90;;;;;;5006753;28;20552;-54
2021/07/20 03:52:23;;;;;;;28.20;15.47;;;14.40;99.90;;;;;;5001450;28;20951;-55
2021/07/20 03:54:49;;;;;;;26.03;15.10;;;14.30;99.90;;;;;;5002025;28;20471;-54
2021/07/20 03:57:21;;;;;;;26.10;15.20;;;14.30;99.90;;;;;;5004293;28;20432;-53
2021/07/20 03:59:50;;;;;;;27.50;15.07;;;14.30;99.90;;;;;;5006114;28;20509;-52
2021/07/20 04:02:21;;;;;;;28.53;16.17;;;14.30;99.90;;;;;;5002127;28;20447;-52
2021/07/20 04:04:49;;;;;;;28.67;14.70;;;14.30;99.90;;;;;;5007916;28;20465;-53
2021/07/20 04:07:18;;;;;;;27.93;15.17;;;14.30;99.90;;;;;;5002132;28;20415;-52
2021/07/20 04:09:45;;;;;;;28.60;15.97;;;14.30;99.90;;;;;;5006556;28;20939;-53
2021/07/20 04:12:15;;;;;;;23.40;14.53;;;14.20;99.90;;;;;;5008885;28;20447;-55
2021/07/20 04:14:48;;;;;;;29.87;14.83;;;14.20;99.90;;;;;;5009748;28;20438;-54
2021/07/20 04:17:15;;;;;;;28.20;15.63;;;14.20;99.90;;;;;;5006356;28;20782;-54
2021/07/20 04:19:41;;;;;;;34.90;16.73;;;14.20;99.90;;;;;;5016637;28;20470;-53
2021/07/20 04:22:09;;;;;;;29.70;16.07;;;14.20;99.90;;;;;;4999433;28;20442;-53
2021/07/20 04:24:35;;;;;;;31.63;16.33;;;14.20;99.90;;;;;;5001056;28;20428;-53
2021/07/20 04:27:02;;;;;;;28.00;15.50;;;14.20;99.90;;;;;;5003125;28;20446;-53
2021/07/20 04:29:29;;;;;;;25.90;15.47;;;14.20;99.90;;;;;;5003280;28;20455;-55
2021/07/20 04:31:58;;;;;;;31.43;15.43;;;14.20;99.90;;;;;;5005564;28;20489;-52
2021/07/20 04:34:24;;;;;;;23.83;14.67;;;14.30;99.90;;;;;;5005461;28;20505;-53
2021/07/20 04:36:51;;;;;;;31.20;15.10;;;14.30;99.90;;;;;;5000761;28;20986;-53
2021/07/20 04:39:17;;;;;;;26.90;15.30;;;14.30;99.90;;;;;;4996144;28;20571;-53
2021/07/20 04:41:43;;;;;;;28.80;15.77;;;14.40;99.90;;;;;;4999671;28;20487;-53
2021/07/20 04:44:09;;;;;;;29.10;15.80;;;14.30;99.90;;;;;;4998472;28;20930;-54
2021/07/20 04:46:35;;;;;;;27.60;15.67;;;14.40;99.90;;;;;;4999206;28;20518;-54
2021/07/20 04:49:03;;;;;;;29.53;14.60;;;14.40;99.90;;;;;;5004887;28;20817;-53
2021/07/20 04:51:31;;;;;;;31.23;16.03;;;14.40;99.90;;;;;;5000449;28;20522;-53
2021/07/20 04:53:58;;;;;;;34.80;16.20;;;14.50;99.90;;;;;;5005926;28;20527;-53
2021/07/20 04:56:24;;;;;;;28.27;15.63;;;14.50;99.90;;;;;;5002085;28;20506;-53
2021/07/20 04:58:50;;;;;;;25.10;14.70;;;14.50;99.90;;;;;;5014752;28;20463;-54
2021/07/20 05:01:15;;;;;;;24.83;15.20;;;14.50;99.90;;;;;;5001962;28;20293;-54
2021/07/20 05:03:42;;;;;;;30.27;15.17;;;14.60;99.90;;;;;;5001455;28;20161;-53
2021/07/20 05:06:08;;;;;;;28.73;15.70;;;14.60;99.90;;;;;;5006281;28;20164;-54
2021/07/20 05:08:35;;;;;;;24.50;14.90;;;14.70;99.90;;;;;;5003743;28;20434;-53
2021/07/20 05:11:01;;;;;;;29.97;15.30;;;14.70;99.90;;;;;;5004336;28;20772;-54
2021/07/20 05:13:27;;;;;;;39.00;16.10;;;14.80;99.90;;;;;;5000864;28;20485;-53
2021/07/20 05:15:56;;;;;;;29.23;14.90;;;14.90;99.90;;;;;;5000450;28;21000;-54
2021/07/20 05:18:23;;;;;;;31.53;16.80;;;14.90;99.90;;;;;;5005121;28;20975;-53
2021/07/20 05:20:53;;;;;;;32.33;16.43;;;14.90;99.90;;;;;;5004626;28;20497;-53
2021/07/20 05:23:19;;;;;;;35.73;16.80;;;15.00;99.90;;;;;;5006302;28;21009;-54
2021/07/20 05:25:54;;;;;;;37.13;15.57;;;15.00;99.90;;;;;;5005305;28;20435;-53
2021/07/20 05:28:21;;;;;;;32.00;16.23;;;15.10;99.90;;;;;;5000530;28;20603;-53
2021/07/20 05:30:50;;;;;;;39.90;16.63;;;15.20;99.90;;;;;;5008198;28;20454;-53
2021/07/20 05:33:19;;;;;;;40.20;15.47;;;15.20;99.90;;;;;;5007414;28;20416;-54
2021/07/20 05:35:48;;;;;;;42.33;15.40;;;15.30;99.90;;;;;;5007655;28;20490;-53
2021/07/20 05:38:13;;;;;;;33.43;15.43;;;15.30;99.90;;;;;;5022903;28;20474;-53
2021/07/20 05:40:42;;;;;;;29.30;16.60;;;15.40;99.90;;;;;;5008099;28;20424;-54
2021/07/20 05:43:08;;;;;;;29.30;15.93;;;15.50;99.90;;;;;;5004940;28;20164;-53
2021/07/20 05:45:35;;;;;;;29.50;15.43;;;15.60;99.90;;;;;;5003653;28;20473;-53
2021/07/20 05:48:03;;;;;;;34.43;16.33;;;15.70;99.90;;;;;;5007746;28;20506;-53
2021/07/20 05:50:30;;;;;;;31.40;16.60;;;15.70;99.90;;;;;;4990942;28;20474;-54
2021/07/20 05:52:57;;;;;;;34.40;15.73;;;15.70;99.90;;;;;;5006326;28;20463;-54
2021/07/20 05:55:24;;;;;;;42.03;17.00;;;15.80;99.90;;;;;;5007599;28;20839;-54
2021/07/20 05:57:50;;;;;;;31.77;16.13;;;15.90;99.90;;;;;;5005717;28;20427;-53
2021/07/20 06:00:22;;;;;;;27.57;15.20;;;16.00;99.90;;;;;;5005198;28;20479;-54
2021/07/20 06:02:48;;;;;;;35.47;18.30;;;16.00;99.90;;;;;;4999295;28;20433;-54
2021/07/20 06:05:15;;;;;;;31.60;17.37;;;16.10;99.90;;;;;;5001554;28;20531;-54
2021/07/20 06:07:43;;;;;;;32.43;16.17;;;16.20;99.90;;;;;;5004225;28;20423;-54
2021/07/20 06:10:10;;;;;;;37.43;17.67;;;16.20;99.90;;;;;;5007676;28;20469;-54
2021/07/20 06:12:37;;;;;;;38.13;17.60;;;16.30;99.90;;;;;;5022362;23;20491;-58
2021/07/20 06:15:04;;;;;;;36.73;18.17;;;16.30;99.90;;;;;;5006266;28;20454;-59
2021/07/20 06:17:32;;;;;;;40.37;18.30;;;16.40;99.90;;;;;;5000421;28;20423;-59
2021/07/20 06:19:59;;;;;;;32.00;16.97;;;16.50;99.90;;;;;;5005561;28;20478;-58
2021/07/20 06:22:30;;;;;;;34.33;17.60;;;16.60;99.90;;;;;;5010430;28;20468;-58
2021/07/20 06:24:57;;;;;;;36.77;18.50;;;16.70;99.90;;;;;;5008310;28;20492;-59
2021/07/20 06:27:26;;;;;;;42.20;18.80;;;16.80;99.90;;;;;;5008540;28;20802;-58
2021/07/20 06:29:54;;;;;;;35.30;16.90;;;16.80;99.90;;;;;;5009030;28;20439;-58
2021/07/20 06:32:24;;;;;;;37.63;19.53;;;16.90;99.90;;;;;;5007783;28;20949;-58
2021/07/20 06:34:50;;;;;;;34.63;18.60;;;17.00;99.90;;;;;;5003985;28;20503;-59
2021/07/20 06:37:18;;;;;;;51.83;18.27;;;17.10;99.90;;;;;;5005024;28;20635;-60
2021/07/20 06:39:44;;;;;;;34.30;17.57;;;17.10;99.90;;;;;;5008962;28;20459;-58
2021/07/20 06:42:11;;;;;;;35.90;16.80;;;17.20;99.90;;;;;;5001746;28;20551;-59
2021/07/20 06:44:39;;;;;;;29.20;17.90;;;17.30;99.90;;;;;;5000123;28;20419;-58
2021/07/20 06:47:08;;;;;;;36.73;18.07;;;17.40;99.90;;;;;;5008464;28;20446;-59
2021/07/20 06:49:35;;;;;;;36.87;17.47;;;17.50;99.90;;;;;;5009249;28;20419;-56
2021/07/20 06:52:04;;;;;;;33.00;16.60;;;17.70;99.90;;;;;;5005703;28;20451;-57
2021/07/20 06:54:30;;;;;;;34.30;17.40;;;17.80;99.90;;;;;;5008653;28;20411;-60
2021/07/20 06:56:59;;;;;;;30.20;15.47;;;17.80;99.90;;;;;;5007286;28;20455;-58
2021/07/20 06:59:25;;;;;;;27.27;14.30;;;17.90;99.50;;;;;;5003970;28;20460;-58
2021/07/20 07:01:52;;;;;;;28.53;15.83;;;17.90;99.40;;;;;;5001987;28;20470;-58
2021/07/20 07:04:33;;;;;;;31.00;16.00;;;18.00;99.00;;;;;;5008288;28;20428;-59
2021/07/20 07:06:59;;;;;;;26.67;15.50;;;18.10;98.40;;;;;;5023916;28;20433;-58
2021/07/20 07:09:30;;;;;;;26.47;15.33;;;18.20;97.30;;;;;;5003274;28;20489;-59
2021/07/20 07:11:58;;;;;;;26.37;15.60;;;18.20;96.40;;;;;;4999509;28;20470;-58
2021/07/20 07:14:24;;;;;;;28.73;16.67;;;18.20;96.50;;;;;;5007666;28;20431;-59
2021/07/20 07:16:53;;;;;;;30.27;16.60;;;18.30;97.40;;;;;;5008902;28;20456;-58
2021/07/20 07:19:20;;;;;;;25.27;14.53;;;18.50;97.80;;;;;;5012758;28;20418;-60
2021/07/20 07:21:48;;;;;;;28.97;16.10;;;18.60;95.90;;;;;;5011965;28;20412;-57
2021/07/20 07:24:19;;;;;;;29.27;16.40;;;18.60;96.20;;;;;;5011988;28;20426;-60
2021/07/20 07:26:47;;;;;;;23.37;14.50;;;18.80;96.40;;;;;;5002972;28;20427;-58
2021/07/20 07:29:14;;;;;;;24.07;13.50;;;18.90;96.20;;;;;;5010575;28;20419;-59
2021/07/20 07:31:44;;;;;;;22.40;13.40;;;19.00;96.10;;;;;;5011524;28;20943;-58
2021/07/20 07:34:10;;;;;;;21.23;13.00;;;19.10;94.30;;;;;;5009286;28;20451;-60
2021/07/20 07:36:37;;;;;;;23.90;13.97;;;19.20;94.30;;;;;;5010884;28;20469;-58
2021/07/20 07:39:05;;;;;;;24.60;14.00;;;19.30;93.30;;;;;;5011296;28;20417;-59
2021/07/20 07:41:37;;;;;;;29.23;14.33;;;19.40;93.30;;;;;;5010487;28;20522;-58
2021/07/20 07:44:04;;;;;;;24.67;13.67;;;19.50;93.50;;;;;;5010299;28;20534;-58
2021/07/20 07:46:32;;;;;;;21.30;13.93;;;19.60;92.90;;;;;;5011402;28;20465;-59
2021/07/20 07:48:58;;;;;;;24.70;14.20;;;19.70;92.20;;;;;;5010299;28;20518;-59
2021/07/20 07:51:24;;;;;;;23.83;14.60;;;19.80;92.60;;;;;;5024086;28;20636;-59
2021/07/20 07:53:52;;;;;;;25.70;14.87;;;19.90;91.70;;;;;;5007401;28;20819;-58
2021/07/20 07:56:19;;;;;;;25.67;15.00;;;20.00;91.90;;;;;;5010914;28;20524;-59
2021/07/20 07:58:45;;;;;;;26.93;16.93;;;20.00;90.90;;;;;;5008756;28;20482;-58
2021/07/20 08:01:12;;;;;;;26.33;14.63;;;20.10;91.10;;;;;;5009893;28;20518;-59
2021/07/20 08:03:43;;;;;;;23.23;13.40;;;20.20;90.50;;;;;;5010709;28;20451;-57
2021/07/20 08:06:09;;;;;;;22.70;14.30;;;20.20;90.50;;;;;;5001176;28;20412;-58
2021/07/20 08:08:39;;;;;;;27.70;14.40;;;20.30;89.00;;;;;;5006715;28;20438;-58
2021/07/20 08:11:12;;;;;;;19.10;12.30;;;20.40;88.90;;;;;;5009743;28;20439;-56
2021/07/20 08:13:39;;;;;;;31.13;14.67;;;20.50;87.70;;;;;;5010695;28;20466;-58
2021/07/20 08:16:07;;;;;;;28.03;14.13;;;20.60;86.90;;;;;;5009866;28;20513;-59
2021/07/20 08:18:34;;;;;;;19.73;12.73;;;20.70;85.90;;;;;;5010281;28;20920;-59
2021/07/20 08:21:02;;;;;;;19.20;12.93;;;20.80;85.00;;;;;;5011221;28;20419;-59
2021/07/20 08:23:31;;;;;;;23.60;14.73;;;20.90;85.90;;;;;;4997752;28;20900;-58
2021/07/20 08:26:03;;;;;;;24.70;12.83;;;21.10;83.70;;;;;;5000821;28;20443;-59
2021/07/20 08:28:51;;;;;;;21.47;13.80;;;21.20;80.30;;;;;;5008436;28;20481;-58
2021/07/20 08:31:19;;;;;;;22.27;13.50;;;21.30;79.70;;;;;;5010691;28;20438;-59
2021/07/20 08:33:47;;;;;;;25.60;14.30;;;21.40;78.30;;;;;;5011151;28;20462;-58
2021/07/20 08:36:15;;;;;;;22.23;14.23;;;21.40;78.10;;;;;;5016980;28;20451;-57
2021/07/20 08:38:42;;;;;;;24.00;14.43;;;21.50;76.70;;;;;;5008140;28;20797;-58
2021/07/20 08:41:33;;;;;;;19.93;14.30;;;21.50;75.40;;;;;;5007386;28;20419;-58
2021/07/20 08:44:26;;;;;;;24.40;14.17;;;21.60;74.10;;;;;;5009847;28;20509;-57
2021/07/20 08:46:54;;;;;;;20.00;13.43;;;21.60;75.90;;;;;;5010628;28;20434;-57
2021/07/20 08:49:53;;;;;;;20.07;12.87;;;21.60;76.30;;;;;;5009192;28;20502;-59
2021/07/20 08:52:28;;;;;;;20.40;13.07;;;21.70;77.50;;;;;;5010237;28;20449;-58
2021/07/20 08:55:06;;;;;;;20.50;13.33;;;21.80;75.20;;;;;;5010552;28;20388;-58
2021/07/20 08:57:45;;;;;;;20.80;12.83;;;21.90;72.30;;;;;;5010372;28;20434;-57
2021/07/20 09:00:17;;;;;;;20.33;13.03;;;22.00;72.40;;;;;;5006692;28;20826;-58
2021/07/20 09:03:32;;;;;;;20.60;13.03;;;22.00;72.50;;;;;;5003469;28;20458;-58
2021/07/20 09:06:10;;;;;;;19.43;13.80;;;22.20;72.40;;;;;;4996539;28;20450;-59
2021/07/20 09:08:53;;;;;;;21.17;14.13;;;22.30;70.30;;;;;;5007417;28;21031;-58
2021/07/20 09:11:41;;;;;;;23.30;13.80;;;22.40;71.20;;;;;;5005230;28;20527;-60
2021/07/20 09:14:21;;;;;;;23.07;14.37;;;22.50;71.90;;;;;;5008013;28;20539;-57
2021/07/20 09:16:52;;;;;;;21.27;13.80;;;22.70;70.10;;;;;;5002652;28;21017;-57
2021/07/20 09:19:35;;;;;;;24.53;15.10;;;22.70;64.50;;;;;;5008796;28;20423;-57
2021/07/20 09:22:10;;;;;;;23.80;14.50;;;22.60;62.10;;;;;;5009547;28;20437;-56
2021/07/20 09:24:47;;;;;;;20.57;14.23;;;22.60;65.10;;;;;;5008374;28;20798;-60
2021/07/20 09:27:29;;;;;;;26.87;15.73;;;22.80;66.30;;;;;;5011022;28;20454;-58
2021/07/20 09:29:56;;;;;;;27.23;16.03;;;22.90;65.30;;;;;;5009277;28;20437;-59
2021/07/20 09:32:34;;;;;;;27.40;14.80;;;23.00;62.80;;;;;;5007909;28;20479;-57
2021/07/20 09:35:05;;;;;;;23.63;15.40;;;23.20;64.10;;;;;;5008776;28;20442;-57
2021/07/20 09:38:04;;;;;;;24.93;15.07;;;23.30;61.20;;;;;;5009206;28;20450;-58
2021/07/20 09:40:45;;;;;;;22.93;14.80;;;23.40;60.80;;;;;;5024351;28;20439;-58
2021/07/20 09:44:06;;;;;;;24.00;16.17;;;23.50;61.50;;;;;;5009053;28;20533;-58
2021/07/20 09:46:41;;;;;;;22.13;15.10;;;23.60;61.40;;;;;;4985403;28;20971;-58
2021/07/20 09:49:44;;;;;;;27.80;18.00;;;23.80;61.00;;;;;;5009927;28;20414;-58
2021/07/20 09:52:37;;;;;;;25.10;15.87;;;23.90;60.30;;;;;;5008511;28;20455;-58
2021/07/20 09:55:22;;;;;;;23.10;15.40;;;24.10;60.20;;;;;;5007806;28;20447;-56
2021/07/20 09:58:11;;;;;;;23.50;16.27;;;24.30;59.80;;;;;;5009719;28;20415;-57
2021/07/20 10:00:46;;;;;;;24.17;16.30;;;24.40;56.60;;;;;;5004820;28;20427;-58
2021/07/20 10:03:19;;;;;;;27.17;16.80;;;24.40;54.30;;;;;;5010600;28;20857;-59
2021/07/20 10:05:52;;;;;;;24.40;16.30;;;24.40;54.90;;;;;;5000896;28;20439;-57
2021/07/20 10:08:38;;;;;;;24.20;16.13;;;24.40;54.70;;;;;;5008542;28;20426;-56
2021/07/20 10:11:22;;;;;;;28.30;16.57;;;24.40;53.70;;;;;;5022167;28;20427;-57
2021/07/20 10:14:06;;;;;;;26.87;16.50;;;24.40;54.80;;;;;;5006385;28;20540;-58
2021/07/20 10:17:11;;;;;;;28.43;17.47;;;24.50;56.20;;;;;;5005382;28;20471;-56
2021/07/20 10:20:16;;;;;;;26.00;17.33;;;24.70;56.10;;;;;;4969284;28;20461;-57
2021/07/20 10:22:49;;;;;;;28.03;18.30;;;25.00;54.70;;;;;;5002044;28;21074;-58
2021/07/20 10:25:32;;;;;;;25.00;16.37;;;25.20;54.60;;;;;;5007675;28;20514;-59
2021/07/20 10:28:08;;;;;;;23.80;16.00;;;25.40;55.30;;;;;;4999397;28;20482;-56
2021/07/20 10:30:36;;;;;;;25.00;16.90;;;25.60;54.40;;;;;;5007985;28;20447;-58
2021/07/20 10:33:17;;;;;;;23.87;16.90;;;25.70;53.80;;;;;;5007632;28;20443;-59
2021/07/20 10:35:50;;;;;;;27.73;17.87;;;25.90;53.00;;;;;;5004722;28;20545;-57
2021/07/20 10:38:20;;;;;;;23.73;15.80;;;26.00;51.90;;;;;;5003820;28;20435;-59
2021/07/20 10:40:51;;;;;;;24.43;16.43;;;26.10;53.00;;;;;;5008522;28;20455;-58
2021/07/20 10:43:31;;;;;;;25.70;17.47;;;26.20;52.30;;;;;;5007998;28;20447;-57
2021/07/20 10:45:59;;;;;;;24.87;16.93;;;26.30;53.30;;;;;;4997744;28;20504;-56
2021/07/20 10:48:30;;;;;;;25.53;16.10;;;26.30;52.30;;;;;;5003605;28;20797;-57
2021/07/20 10:51:16;;;;;;;23.70;16.33;;;26.40;53.30;;;;;;4997409;28;20463;-59
2021/07/20 10:54:11;;;;;;;27.20;17.13;;;26.50;52.40;;;;;;5010189;28;20462;-59
2021/07/20 10:56:58;;;;;;;26.00;15.50;;;26.50;50.10;;;;;;5014486;28;20466;-58
2021/07/20 10:59:44;;;;;;;27.23;17.30;;;26.30;50.30;;;;;;5008408;28;20497;-58
2021/07/20 11:02:33;;;;;;;25.10;16.07;;;26.30;50.80;;;;;;5008838;28;20453;-58
2021/07/20 11:05:11;;;;;;;25.47;16.33;;;26.30;50.90;;;;;;5012387;28;20427;-59
2021/07/20 11:07:50;;;;;;;30.00;16.40;;;26.40;50.90;;;;;;5004561;28;20431;-59
2021/07/20 11:10:22;;;;;;;27.83;16.73;;;26.50;52.10;;;;;;5006936;28;20955;-58
2021/07/20 11:12:54;;;;;;;24.10;15.37;;;26.60;52.90;;;;;;5022888;28;20548;-58
2021/07/20 11:15:21;;;;;;;25.77;17.07;;;26.80;52.60;;;;;;5008648;28;20506;-58
2021/07/20 11:17:54;;;;;;;27.30;17.00;;;26.80;49.50;;;;;;5005593;28;20492;-59
2021/07/20 11:20:21;;;;;;;26.30;16.47;;;26.90;49.30;;;;;;5013164;28;20414;-62
2021/07/20 11:22:49;;;;;;;22.77;16.10;;;27.00;48.70;;;;;;5010996;28;20442;-61
2021/07/20 11:25:16;;;;;;;27.53;17.33;;;27.00;48.70;;;;;;5006151;28;20426;-60
2021/07/20 11:27:44;;;;;;;22.67;15.50;;;27.00;49.20;;;;;;5002010;28;21271;-60
2021/07/20 11:30:11;;;;;;;27.77;17.10;;;27.10;49.40;;;;;;5024311;28;20521;-59
2021/07/20 11:32:40;;;;;;;23.67;16.87;;;27.20;51.00;;;;;;5017033;28;20449;-59
2021/07/20 11:35:18;;;;;;;24.70;16.63;;;27.30;50.10;;;;;;4999660;28;20467;-58
2021/07/20 11:38:00;;;;;;;27.50;17.00;;;27.30;49.50;;;;;;5002684;28;20596;-58
2021/07/20 11:40:33;;;;;;;25.37;17.60;;;27.00;49.40;;;;;;5008164;28;20791;-59
2021/07/20 11:43:12;;;;;;;23.43;16.53;;;26.80;49.80;;;;;;5008454;28;20458;-58
2021/07/20 11:46:04;;;;;;;27.87;16.53;;;26.70;48.10;;;;;;5011075;28;20764;-57
2021/07/20 11:48:37;;;;;;;25.20;17.00;;;26.70;49.60;;;;;;5006310;28;20940;-57
2021/07/20 11:51:11;;;;;;;25.50;16.90;;;26.70;49.50;;;;;;5011846;28;20447;-59
2021/07/20 11:54:05;;;;;;;25.50;16.73;;;26.90;50.20;;;;;;5009023;28;20450;-57
2021/07/20 11:56:40;;;;;;;24.00;16.80;;;27.00;50.30;;;;;;5003314;28;20974;-58
2021/07/20 11:59:27;;;;;;;24.33;16.83;;;27.20;49.60;;;;;;5002650;28;20470;-58
2021/07/20 12:02:25;;;;;;;27.43;17.80;;;27.30;50.80;;;;;;5000395;28;20437;-58
2021/07/20 12:05:02;;;;;;;28.17;16.73;;;27.40;50.20;;;;;;5007201;28;20433;-58
2021/07/20 12:07:59;;;;;;;24.07;16.37;;;27.00;47.80;;;;;;5005091;28;20442;-58
2021/07/20 12:10:29;;;;;;;26.60;16.50;;;26.90;49.10;;;;;;5001277;28;20454;-59
2021/07/20 12:13:03;;;;;;;29.30;18.10;;;26.70;50.80;;;;;;5017538;23;21691;-53
2021/07/20 12:15:29;;;;;;;25.73;16.90;;;26.30;49.80;;;;;;5004748;28;20999;-53
2021/07/20 12:18:00;;;;;;;24.23;15.90;;;25.90;49.40;;;;;;5007361;28;20510;-53
2021/07/20 12:20:26;;;;;;;26.80;17.90;;;25.60;50.00;;;;;;5006969;28;20509;-54
2021/07/20 12:22:54;;;;;;;29.30;16.90;;;25.40;52.30;;;;;;5007178;28;20438;-54
2021/07/20 12:25:22;;;;;;;25.10;16.07;;;25.20;53.30;;;;;;5007438;28;20953;-54
2021/07/20 12:27:49;;;;;;;26.93;17.87;;;25.20;53.40;;;;;;5007206;28;20540;-54
2021/07/20 12:30:17;;;;;;;27.30;17.47;;;25.40;54.30;;;;;;5000433;28;20462;-54
2021/07/20 12:32:45;;;;;;;24.77;16.83;;;25.70;54.60;;;;;;5000182;28;20478;-53
2021/07/20 12:35:15;;;;;;;28.60;16.43;;;25.70;53.00;;;;;;4998392;28;20454;-52
2021/07/20 12:37:57;;;;;;;23.70;16.87;;;25.80;53.50;;;;;;4995090;28;20458;-51
2021/07/20 12:40:23;;;;;;;28.43;16.17;;;26.00;53.20;;;;;;4996351;28;20445;-54
2021/07/20 12:43:06;;;;;;;22.63;15.70;;;26.10;52.20;;;;;;4999995;28;20456;-53
2021/07/20 12:45:31;;;;;;;24.10;17.13;;;26.30;50.70;;;;;;4997972;28;20198;-54
2021/07/20 12:47:57;;;;;;;26.80;16.37;;;26.70;51.10;;;;;;4996190;28;20438;-53
2021/07/20 12:50:23;;;;;;;27.87;16.80;;;27.00;51.10;;;;;;4996350;28;20176;-53
2021/07/20 12:52:50;;;;;;;23.60;16.20;;;27.00;50.50;;;;;;4997624;28;20716;-54